createdAt,value
2022-11-07T00:01:41.203Z,10.80
2022-11-07T00:04:10.425Z,10.70
2022-11-07T00:06:39.398Z,10.70
2022-11-07T00:09:06.219Z,10.70
2022-11-07T00:11:33.052Z,10.70
2022-11-07T00:14:02.210Z,10.70
2022-11-07T00:16:29.346Z,10.60
2022-11-07T00:18:56.167Z,10.60
2022-11-07T00:21:23.081Z,10.60
2022-11-07T00:23:49.742Z,10.60
2022-11-07T00:26:16.633Z,10.50
2022-11-07T00:28:46.049Z,10.60
2022-11-07T00:31:16.133Z,10.50
2022-11-07T00:33:48.422Z,10.50
2022-11-07T00:36:26.512Z,10.50
2022-11-07T00:38:56.332Z,10.60
2022-11-07T00:41:23.582Z,10.60
2022-11-07T00:43:50.338Z,10.60
2022-11-07T00:46:17.450Z,10.60
2022-11-07T00:48:46.373Z,10.50
2022-11-07T00:51:33.058Z,10.60
2022-11-07T00:54:03.053Z,10.50
2022-11-07T00:56:32.230Z,10.50
2022-11-07T00:58:59.957Z,10.50
2022-11-07T01:01:31.625Z,10.50
2022-11-07T01:04:17.336Z,10.50
2022-11-07T01:06:45.497Z,10.50
2022-11-07T01:09:15.258Z,10.40
2022-11-07T01:11:43.106Z,10.40
2022-11-07T01:14:11.616Z,10.40
2022-11-07T01:16:43.109Z,10.50
2022-11-07T01:19:12.550Z,10.50
2022-11-07T01:21:42.793Z,10.50
2022-11-07T01:24:13.323Z,10.40
2022-11-07T01:26:41.922Z,10.40
2022-11-07T01:29:09.571Z,10.40
2022-11-07T01:31:38.853Z,10.40
2022-11-07T01:34:07.736Z,10.40
2022-11-07T01:36:37.035Z,10.40
2022-11-07T01:39:06.226Z,10.40
2022-11-07T01:41:37.883Z,10.40
2022-11-07T01:44:07.246Z,10.30
2022-11-07T01:46:42.166Z,10.30
2022-11-07T01:49:23.063Z,10.30
2022-11-07T01:52:09.543Z,10.30
2022-11-07T01:54:41.801Z,10.30
2022-11-07T01:57:16.885Z,10.30
2022-11-07T01:59:46.406Z,10.20
2022-11-07T02:02:13.148Z,10.20
2022-11-07T02:04:39.937Z,10.20
2022-11-07T02:07:20.193Z,10.10
2022-11-07T02:09:49.857Z,10.10
2022-11-07T02:12:20.430Z,10.10
2022-11-07T02:14:47.124Z,10.10
2022-11-07T02:17:15.815Z,10.00
2022-11-07T02:19:44.397Z,10.00
2022-11-07T02:22:35.722Z,10.00
2022-11-07T02:25:09.138Z,10.00
2022-11-07T02:27:37.401Z,10.00
2022-11-07T02:30:11.081Z,10.00
2022-11-07T02:32:38.151Z,10.00
2022-11-07T02:35:27.325Z,10.00
2022-11-07T02:37:55.006Z,10.00
2022-11-07T02:40:22.065Z,10.10
2022-11-07T02:42:50.960Z,10.10
2022-11-07T02:45:27.608Z,10.10
2022-11-07T02:47:54.371Z,10.10
2022-11-07T02:50:21.183Z,10.10
2022-11-07T02:52:47.829Z,10.20
2022-11-07T02:55:15.002Z,10.20
2022-11-07T02:57:44.992Z,10.20
2022-11-07T03:00:13.766Z,10.10
2022-11-07T03:02:46.904Z,10.10
2022-11-07T03:05:16.344Z,10.20
2022-11-07T03:07:44.659Z,10.10
2022-11-07T03:10:12.217Z,10.10
2022-11-07T03:12:39.011Z,10.10
2022-11-07T03:15:10.547Z,10.10
2022-11-07T03:17:37.558Z,10.10
2022-11-07T03:20:04.802Z,10.10
2022-11-07T03:22:31.500Z,10.10
2022-11-07T03:25:00.638Z,10.10
2022-11-07T03:27:27.415Z,10.10
2022-11-07T03:29:54.075Z,10.20
2022-11-07T03:32:20.801Z,10.20
2022-11-07T03:34:47.482Z,10.20
2022-11-07T03:37:14.384Z,10.20
2022-11-07T03:39:41.130Z,10.20
2022-11-07T03:42:09.922Z,10.10
2022-11-07T03:44:36.565Z,10.10
2022-11-07T03:47:03.301Z,10.20
2022-11-07T03:49:32.401Z,10.20
2022-11-07T03:52:01.500Z,10.10
2022-11-07T03:54:28.268Z,10.10
2022-11-07T03:56:57.457Z,10.10
2022-11-07T03:59:24.094Z,10.10
2022-11-07T04:01:53.167Z,10.10
2022-11-07T04:04:22.396Z,10.10
2022-11-07T04:06:51.514Z,10.10
2022-11-07T04:09:20.279Z,10.10
2022-11-07T04:12:05.603Z,10.10
2022-11-07T04:14:51.006Z,10.00
2022-11-07T04:17:23.215Z,10.10
2022-11-07T04:19:55.851Z,10.10
2022-11-07T04:22:26.785Z,10.10
2022-11-07T04:24:53.596Z,10.10
2022-11-07T04:27:39.244Z,10.10
2022-11-07T04:30:21.849Z,10.10
2022-11-07T04:32:59.008Z,10.10
2022-11-07T04:35:28.860Z,10.10
2022-11-07T04:37:55.513Z,10.10
2022-11-07T04:40:22.530Z,10.10
2022-11-07T04:42:49.792Z,10.10
2022-11-07T04:45:16.948Z,10.10
2022-11-07T04:47:44.203Z,10.00
2022-11-07T04:50:12.861Z,10.00
2022-11-07T04:52:39.581Z,10.00
2022-11-07T04:55:09.991Z,10.10
2022-11-07T04:57:38.887Z,10.10
2022-11-07T05:00:06.241Z,10.10
2022-11-07T05:02:32.947Z,10.10
2022-11-07T05:05:02.127Z,10.10
2022-11-07T05:07:28.810Z,10.20
2022-11-07T05:09:55.466Z,10.20
2022-11-07T05:12:26.919Z,10.20
2022-11-07T05:14:58.197Z,10.30
2022-11-07T05:17:28.186Z,10.30
2022-11-07T05:19:55.029Z,10.20
2022-11-07T05:22:40.153Z,10.20
2022-11-07T05:25:09.745Z,10.20
2022-11-07T05:27:36.414Z,10.20
2022-11-07T05:30:03.862Z,10.20
2022-11-07T05:32:38.001Z,10.20
2022-11-07T05:35:05.687Z,10.10
2022-11-07T05:37:32.425Z,10.10
2022-11-07T05:39:59.061Z,10.10
2022-11-07T05:42:28.099Z,10.10
2022-11-07T05:44:56.983Z,10.10
2022-11-07T05:47:23.621Z,10.00
2022-11-07T05:49:50.269Z,10.00
2022-11-07T05:52:16.936Z,10.00
2022-11-07T05:54:43.586Z,10.00
2022-11-07T05:57:10.281Z,9.90
2022-11-07T05:59:36.965Z,9.90
2022-11-07T06:02:03.780Z,9.90
2022-11-07T06:04:30.539Z,9.80
2022-11-07T06:06:59.694Z,9.80
2022-11-07T06:09:26.442Z,9.80
2022-11-07T06:11:55.242Z,9.80
2022-11-07T06:14:21.921Z,9.80
2022-11-07T06:16:48.584Z,9.80
2022-11-07T06:19:15.315Z,9.70
2022-11-07T06:21:42.070Z,9.70
2022-11-07T06:24:15.127Z,9.70
2022-11-07T06:26:44.490Z,9.70
2022-11-07T06:29:13.487Z,9.70
2022-11-07T06:31:40.111Z,9.70
2022-11-07T06:34:09.241Z,9.80
2022-11-07T06:36:38.106Z,9.80
2022-11-07T06:39:07.224Z,9.90
2022-11-07T06:41:33.916Z,9.90
2022-11-07T06:44:00.580Z,10.00
2022-11-07T06:46:27.305Z,10.00
2022-11-07T06:48:54.408Z,10.10
2022-11-07T06:51:21.079Z,10.20
2022-11-07T06:53:47.818Z,10.30
2022-11-07T06:56:15.798Z,10.30
2022-11-07T06:58:45.249Z,10.30
2022-11-07T07:01:17.691Z,10.40
2022-11-07T07:03:46.915Z,10.40
2022-11-07T07:06:18.878Z,10.40
2022-11-07T07:08:45.940Z,10.40
2022-11-07T07:11:15.988Z,10.50
2022-11-07T07:13:45.221Z,10.50
2022-11-07T07:16:12.988Z,10.60
2022-11-07T07:18:39.675Z,10.60
2022-11-07T07:21:14.241Z,10.60
2022-11-07T07:23:41.484Z,10.60
2022-11-07T07:26:12.610Z,10.70
2022-11-07T07:28:39.459Z,10.70
2022-11-07T07:31:13.574Z,10.80
2022-11-07T07:33:49.569Z,10.80
2022-11-07T07:36:21.260Z,10.90
2022-11-07T07:38:49.351Z,10.90
2022-11-07T07:41:19.595Z,11.00
2022-11-07T07:43:48.888Z,11.10
2022-11-07T07:46:19.358Z,11.10
2022-11-07T07:48:48.608Z,11.20
2022-11-07T07:51:17.979Z,11.20
2022-11-07T07:53:44.663Z,11.30
2022-11-07T07:56:11.394Z,11.40
2022-11-07T07:58:38.117Z,11.50
2022-11-07T08:01:10.306Z,11.50
2022-11-07T08:03:59.528Z,11.50
2022-11-07T08:06:24.642Z,11.60
2022-11-07T08:08:51.298Z,11.70
2022-11-07T08:11:20.203Z,11.80
2022-11-07T08:13:46.959Z,11.80
2022-11-07T08:16:13.674Z,11.90
2022-11-07T08:18:42.750Z,11.90
2022-11-07T08:21:11.548Z,12.00
2022-11-07T08:23:40.943Z,12.10
2022-11-07T08:26:07.736Z,12.10
2022-11-07T08:28:36.157Z,12.20
2022-11-07T08:31:11.865Z,12.30
2022-11-07T08:33:39.009Z,12.30
2022-11-07T08:36:06.988Z,12.40
2022-11-07T08:38:35.303Z,12.50
2022-11-07T08:41:03.976Z,12.50
2022-11-07T08:43:30.899Z,12.50
2022-11-07T08:45:57.816Z,12.60
2022-11-07T08:48:24.922Z,12.70
2022-11-07T08:50:53.409Z,12.70
2022-11-07T08:53:23.253Z,12.90
2022-11-07T08:55:52.247Z,12.90
2022-11-07T08:58:19.574Z,13.00
2022-11-07T09:00:46.967Z,13.10
2022-11-07T09:06:00.737Z,13.30
2022-11-07T09:08:27.597Z,13.30
2022-11-07T09:10:54.353Z,13.40
2022-11-07T09:13:21.185Z,13.40
2022-11-07T09:15:51.778Z,13.30
2022-11-07T09:18:19.661Z,13.40
2022-11-07T09:20:46.440Z,13.50
2022-11-07T09:23:13.474Z,13.50
2022-11-07T09:25:40.328Z,13.60
2022-11-07T09:28:07.123Z,13.60
2022-11-07T09:30:33.987Z,13.80
2022-11-07T09:33:00.916Z,13.80
2022-11-07T09:35:30.009Z,13.90
2022-11-07T09:37:57.747Z,14.00
2022-11-07T09:40:43.045Z,14.00
2022-11-07T09:43:25.116Z,14.10
2022-11-07T09:46:02.453Z,14.20
2022-11-07T09:48:49.253Z,14.20
2022-11-07T09:51:31.774Z,14.20
2022-11-07T09:54:08.055Z,14.30
2022-11-07T09:56:35.116Z,14.30
2022-11-07T09:59:13.850Z,14.30
2022-11-07T10:01:41.446Z,14.30
2022-11-07T10:04:26.673Z,14.40
2022-11-07T10:07:33.323Z,14.50
2022-11-07T10:10:16.766Z,14.70
2022-11-07T10:12:54.479Z,14.90
2022-11-07T10:15:38.228Z,15.00
2022-11-07T10:18:26.609Z,15.10
2022-11-07T10:21:31.179Z,15.10
2022-11-07T10:24:22.177Z,15.10
2022-11-07T10:26:51.491Z,15.20
2022-11-07T10:32:07.005Z,15.50
2022-11-07T10:34:37.687Z,15.40
2022-11-07T10:37:04.887Z,15.40
2022-11-07T10:39:32.324Z,15.50
2022-11-07T10:42:15.514Z,15.60
2022-11-07T10:44:42.836Z,15.70
2022-11-07T10:47:21.602Z,15.70
2022-11-07T10:50:05.026Z,15.70
2022-11-07T10:52:31.759Z,15.70
2022-11-07T10:55:19.106Z,15.70
2022-11-07T10:58:05.936Z,15.70
2022-11-07T11:00:36.360Z,15.80
2022-11-07T11:03:03.348Z,15.80
2022-11-07T11:05:46.401Z,15.80
2022-11-07T11:08:18.165Z,15.90
2022-11-07T11:10:45.524Z,15.80
2022-11-07T11:13:31.626Z,15.90
2022-11-07T11:16:21.199Z,16.00
2022-11-07T11:18:53.940Z,15.90
2022-11-07T11:21:21.351Z,16.00
2022-11-07T11:23:48.680Z,15.90
2022-11-07T11:26:21.320Z,15.80
2022-11-07T11:29:29.477Z,15.90
2022-11-07T11:31:58.495Z,15.90
2022-11-07T11:34:37.120Z,15.90
2022-11-07T11:37:14.934Z,16.00
2022-11-07T11:39:45.012Z,16.10
2022-11-07T11:42:32.941Z,16.10
2022-11-07T11:45:09.310Z,16.30
2022-11-07T11:47:42.818Z,16.40
2022-11-07T11:50:19.148Z,16.50
2022-11-07T11:52:46.537Z,16.40
2022-11-07T11:55:18.050Z,16.30
2022-11-07T11:58:18.900Z,16.40
2022-11-07T12:01:03.762Z,16.40
2022-11-07T12:03:42.364Z,16.40
2022-11-07T12:06:16.333Z,16.40
2022-11-07T12:09:03.122Z,16.30
2022-11-07T12:11:32.602Z,16.30
2022-11-07T12:14:08.235Z,16.30
2022-11-07T12:17:06.498Z,16.30
2022-11-07T12:19:52.113Z,16.30
2022-11-07T12:22:31.412Z,16.30
2022-11-07T12:25:13.320Z,16.30
2022-11-07T12:27:51.890Z,16.20
2022-11-07T12:30:18.534Z,16.10
2022-11-07T12:33:03.461Z,16.20
2022-11-07T12:35:40.798Z,16.20
2022-11-07T12:38:19.470Z,16.30
2022-11-07T12:41:11.134Z,16.30
2022-11-07T12:44:07.337Z,16.40
2022-11-07T12:46:48.504Z,16.40
2022-11-07T12:49:26.080Z,16.40
2022-11-07T12:51:55.838Z,16.40
2022-11-07T12:54:24.661Z,16.20
2022-11-07T12:56:52.781Z,16.20
2022-11-07T12:59:29.538Z,16.20
2022-11-07T13:02:02.704Z,16.40
2022-11-07T13:04:36.319Z,16.40
2022-11-07T13:07:12.001Z,16.40
2022-11-07T13:09:38.622Z,16.40
2022-11-07T13:12:24.418Z,16.40
2022-11-07T13:14:51.531Z,16.40
2022-11-07T13:17:20.826Z,16.30
2022-11-07T13:20:00.996Z,16.40
2022-11-07T13:22:55.333Z,16.40
2022-11-07T13:25:28.554Z,16.30
2022-11-07T13:27:55.206Z,16.30
2022-11-07T13:30:31.843Z,16.30
2022-11-07T13:33:04.112Z,16.30
2022-11-07T13:35:36.984Z,16.20
2022-11-07T13:38:10.458Z,16.30
2022-11-07T13:41:01.298Z,16.30
2022-11-07T13:43:45.663Z,16.20
2022-11-07T13:46:24.272Z,16.20
2022-11-07T13:48:57.124Z,16.30
2022-11-07T13:51:38.454Z,16.20
2022-11-07T13:54:27.814Z,16.30
2022-11-07T13:56:59.990Z,16.20
2022-11-07T13:59:56.228Z,16.20
2022-11-07T14:02:31.131Z,16.20
2022-11-07T14:05:22.078Z,16.20
2022-11-07T14:08:02.160Z,16.10
2022-11-07T14:10:46.316Z,16.10
2022-11-07T14:13:30.028Z,16.10
2022-11-07T14:16:05.010Z,16.00
2022-11-07T14:18:45.562Z,15.90
2022-11-07T14:21:20.295Z,15.90
2022-11-07T14:23:47.709Z,16.00
2022-11-07T14:26:25.789Z,16.00
2022-11-07T14:28:56.871Z,15.90
2022-11-07T14:31:37.774Z,16.00
2022-11-07T14:34:13.652Z,16.00
2022-11-07T14:36:55.772Z,16.00
2022-11-07T14:39:24.319Z,16.00
2022-11-07T14:41:52.616Z,16.00
2022-11-07T14:44:36.258Z,15.90
2022-11-07T14:47:17.251Z,15.80
2022-11-07T14:49:45.843Z,15.80
2022-11-07T14:52:41.676Z,15.80
2022-11-07T14:55:18.915Z,15.70
2022-11-07T14:57:45.889Z,15.70
2022-11-07T15:00:19.291Z,15.60
2022-11-07T15:02:51.945Z,15.50
2022-11-07T15:05:25.436Z,15.50
2022-11-07T15:07:53.010Z,15.40
2022-11-07T15:10:32.711Z,15.50
2022-11-07T15:13:01.052Z,15.40
2022-11-07T15:15:34.574Z,15.40
2022-11-07T15:18:06.446Z,15.40
2022-11-07T15:20:37.354Z,15.40
2022-11-07T15:23:31.247Z,15.30
2022-11-07T15:26:07.202Z,15.30
2022-11-07T15:28:50.474Z,15.30
2022-11-07T15:31:25.830Z,15.20
2022-11-07T15:33:56.069Z,15.20
2022-11-07T15:36:25.575Z,15.10
2022-11-07T15:38:56.166Z,15.10
2022-11-07T15:41:22.915Z,15.00
2022-11-07T15:43:49.604Z,15.00
2022-11-07T15:46:31.185Z,15.00
2022-11-07T15:49:00.144Z,15.00
2022-11-07T15:51:26.824Z,14.80
2022-11-07T15:53:53.530Z,14.90
2022-11-07T15:56:23.263Z,14.90
2022-11-07T15:58:50.972Z,14.90
2022-11-07T16:01:17.965Z,14.80
2022-11-07T16:03:45.027Z,14.80
2022-11-07T16:06:38.910Z,14.80
2022-11-07T16:09:19.613Z,14.80
2022-11-07T16:11:46.856Z,14.70
2022-11-07T16:14:42.824Z,14.70
2022-11-07T16:17:15.591Z,14.70
2022-11-07T16:19:42.386Z,14.70
2022-11-07T16:22:12.206Z,14.70
2022-11-07T16:24:38.764Z,14.60
2022-11-07T16:27:09.717Z,14.60
2022-11-07T16:29:36.610Z,14.60
2022-11-07T16:32:05.563Z,14.50
2022-11-07T16:34:36.922Z,14.50
2022-11-07T16:37:03.608Z,14.50
2022-11-07T16:39:31.551Z,14.50
2022-11-07T16:41:58.219Z,14.40
2022-11-07T16:44:26.566Z,14.50
2022-11-07T16:46:57.459Z,14.40
2022-11-07T16:49:30.712Z,14.40
2022-11-07T16:52:00.177Z,14.40
2022-11-07T16:54:26.957Z,14.40
2022-11-07T16:56:56.681Z,14.40
2022-11-07T16:59:24.012Z,14.40
2022-11-07T17:01:52.072Z,14.40
2022-11-07T17:04:18.908Z,14.40
2022-11-07T17:06:47.473Z,14.40
2022-11-07T17:09:16.745Z,14.30
2022-11-07T17:11:44.446Z,14.30
2022-11-07T17:14:11.664Z,14.40
2022-11-07T17:16:43.894Z,14.40
2022-11-07T17:19:12.837Z,14.30
2022-11-07T17:21:46.025Z,14.30
2022-11-07T17:24:13.737Z,14.40
2022-11-07T17:26:40.446Z,14.40
2022-11-07T17:29:13.341Z,14.30
2022-11-07T17:31:42.685Z,14.30
2022-11-07T17:34:11.774Z,14.40
2022-11-07T17:36:46.217Z,14.40
2022-11-07T17:39:20.970Z,14.40
2022-11-07T17:41:49.854Z,14.40
2022-11-07T17:44:19.681Z,14.40
2022-11-07T17:46:47.757Z,14.40
2022-11-07T17:49:17.377Z,14.30
2022-11-07T17:51:47.124Z,14.30
2022-11-07T17:54:15.771Z,14.40
2022-11-07T17:56:42.541Z,14.30
2022-11-07T17:59:13.279Z,14.40
2022-11-07T18:01:40.653Z,14.30
2022-11-07T18:04:09.075Z,14.40
2022-11-07T18:06:37.742Z,14.30
2022-11-07T18:09:10.903Z,14.30
2022-11-07T18:11:39.868Z,14.30
2022-11-07T18:14:06.524Z,14.40
2022-11-07T18:16:34.867Z,14.30
2022-11-07T18:19:02.301Z,14.40
2022-11-07T18:21:29.277Z,14.30
2022-11-07T18:23:58.882Z,14.30
2022-11-07T18:26:30.941Z,14.30
2022-11-07T18:29:03.870Z,14.30
2022-11-07T18:31:30.664Z,14.30
2022-11-07T18:33:58.727Z,14.30
2022-11-07T18:36:25.795Z,14.30
2022-11-07T18:38:52.831Z,14.30
2022-11-07T18:41:21.912Z,14.30
2022-11-07T18:43:54.091Z,14.30
2022-11-07T18:46:21.863Z,14.20
2022-11-07T18:48:50.618Z,14.20
2022-11-07T18:51:23.275Z,14.20
2022-11-07T18:53:51.518Z,14.20
2022-11-07T18:56:18.474Z,14.20
2022-11-07T18:58:45.489Z,14.20
2022-11-07T19:01:19.390Z,14.20
2022-11-07T19:03:47.092Z,14.10
2022-11-07T19:06:16.841Z,14.10
2022-11-07T19:08:44.325Z,14.00
2022-11-07T19:11:13.199Z,14.00
2022-11-07T19:13:45.497Z,14.00
2022-11-07T19:16:15.576Z,13.90
2022-11-07T19:18:49.099Z,13.90
2022-11-07T19:21:19.730Z,13.80
2022-11-07T19:23:47.404Z,13.80
2022-11-07T19:26:14.403Z,13.80
2022-11-07T19:28:43.276Z,13.80
2022-11-07T19:31:13.203Z,13.70
2022-11-07T19:33:41.458Z,13.70
2022-11-07T19:36:12.568Z,13.70
2022-11-07T19:38:39.493Z,13.60
2022-11-07T19:41:07.715Z,13.60
2022-11-07T19:43:35.304Z,13.60
2022-11-07T19:46:15.198Z,13.60
2022-11-07T19:48:44.151Z,13.60
2022-11-07T19:51:20.933Z,13.50
2022-11-07T19:53:52.677Z,13.50
2022-11-07T19:56:19.463Z,13.50
2022-11-07T19:58:46.230Z,13.50
2022-11-07T20:01:21.284Z,13.50
2022-11-07T20:03:50.324Z,13.40
2022-11-07T20:06:20.350Z,13.40
2022-11-07T20:08:47.269Z,13.40
2022-11-07T20:11:15.679Z,13.30
2022-11-07T20:13:43.194Z,13.30
2022-11-07T20:16:10.772Z,13.30
2022-11-07T20:18:38.646Z,13.20
2022-11-07T20:21:10.301Z,13.20
2022-11-07T20:26:12.368Z,13.10
2022-11-07T20:28:39.250Z,13.10
2022-11-07T20:31:12.402Z,13.10
2022-11-07T20:33:39.107Z,13.00
2022-11-07T20:36:08.726Z,13.00
2022-11-07T20:38:36.099Z,13.00
2022-11-07T20:41:06.660Z,12.90
2022-11-07T20:43:34.132Z,12.90
2022-11-07T20:46:09.931Z,12.90
2022-11-07T20:48:39.446Z,12.80
2022-11-07T20:51:10.993Z,12.70
2022-11-07T20:53:49.539Z,12.80
2022-11-07T20:56:20.406Z,12.70
2022-11-07T20:58:47.785Z,12.70
2022-11-07T21:01:36.842Z,12.60
2022-11-07T21:04:05.166Z,12.60
2022-11-07T21:06:32.483Z,12.60
2022-11-07T21:09:02.155Z,12.60
2022-11-07T21:11:31.548Z,12.60
2022-11-07T21:14:01.688Z,12.60
2022-11-07T21:16:28.463Z,12.50
2022-11-07T21:18:55.666Z,12.50
2022-11-07T21:21:26.980Z,12.50
2022-11-07T21:23:54.933Z,12.50
2022-11-07T21:26:31.742Z,12.50
2022-11-07T21:29:01.545Z,12.50
2022-11-07T21:31:29.749Z,12.50
2022-11-07T21:33:57.485Z,12.50
2022-11-07T21:36:27.179Z,12.40
2022-11-07T21:38:55.318Z,12.40
2022-11-07T21:41:25.080Z,12.40
2022-11-07T21:43:52.066Z,12.50
2022-11-07T21:46:21.744Z,12.40
2022-11-07T21:48:48.932Z,12.50
2022-11-07T21:51:18.722Z,12.50
2022-11-07T21:53:46.435Z,12.40
2022-11-07T21:56:16.231Z,12.50
2022-11-07T21:58:42.868Z,12.40
2022-11-07T22:01:09.840Z,12.40
2022-11-07T22:04:04.487Z,12.30
2022-11-07T22:06:23.506Z,12.30
2022-11-07T22:08:54.009Z,12.30
2022-11-07T22:11:20.821Z,12.40
2022-11-07T22:13:49.671Z,12.40
2022-11-07T22:16:21.331Z,12.30
2022-11-07T22:18:52.632Z,12.30
2022-11-07T22:21:21.427Z,12.30
2022-11-07T22:23:51.273Z,12.20
2022-11-07T22:26:22.130Z,12.20
2022-11-07T22:28:52.186Z,12.20
2022-11-07T22:31:25.046Z,12.20
2022-11-07T22:33:57.001Z,12.20
2022-11-07T22:36:24.533Z,12.30
2022-11-07T22:38:53.909Z,12.30
2022-11-07T22:41:23.073Z,12.30
2022-11-07T22:43:50.670Z,12.30
2022-11-07T22:46:20.336Z,12.30
2022-11-07T22:48:48.586Z,12.30
2022-11-07T22:51:20.096Z,12.30
2022-11-07T22:53:54.671Z,12.30
2022-11-07T22:56:26.057Z,12.20
2022-11-07T22:58:53.077Z,12.30
2022-11-07T23:01:28.316Z,12.30
2022-11-07T23:03:56.297Z,12.30
2022-11-07T23:06:24.154Z,12.30
2022-11-07T23:08:51.406Z,12.20
2022-11-07T23:14:19.122Z,12.20
2022-11-07T23:16:51.385Z,12.10
2022-11-07T23:19:20.298Z,12.10
2022-11-07T23:21:47.121Z,12.10
2022-11-07T23:24:14.277Z,12.10
2022-11-07T23:26:41.367Z,12.10
2022-11-07T23:29:15.301Z,12.00
2022-11-07T23:31:45.262Z,12.00
2022-11-07T23:34:12.568Z,12.10
2022-11-07T23:36:44.837Z,12.10
2022-11-07T23:39:17.223Z,12.10
2022-11-07T23:41:44.762Z,12.10
2022-11-07T23:44:11.622Z,12.00
2022-11-07T23:46:57.044Z,12.00
2022-11-07T23:49:35.817Z,12.10
2022-11-07T23:52:07.789Z,12.10
2022-11-07T23:54:53.192Z,12.10
2022-11-07T23:57:20.319Z,12.10
